Barao de Melgaco, Brazil
Current Conditions -  °F | °C
As of 7:00 PM on Tuesday 21 Oct 2014 (Local Time) from SBCY Reporting Station
Few Clouds Few Clouds  
Wind Chill: 88°   Ceiling: Unl
Heat Index: 93°   Visibility: 6mi
Dew Point: 70°   Wind: 10mph
Humidity: 55%   Direction: 200°SSW
Pressure: 29.83"   Gusts: NA
Location:  16.19°S, 55.97°W
Report Text: SBCY 212200Z 20009KT 9999 FEW020 31/21 Q1010
Loading
Personal Weather Stations






























Interactive Weather Map
Tropical Storm Tracking
New forecast layout! Learn more

10-Day Weather Forecast

Advertisements
Track Severe Weather on mobile